createdAt,value
2023-01-11T00:00:40.128Z,22.20
2023-01-11T00:03:17.546Z,20.92
2023-01-11T00:05:45.526Z,22.23
2023-01-11T00:08:12.889Z,22.17
2023-01-11T00:10:41.260Z,21.58
2023-01-11T00:13:08.574Z,22.42
2023-01-11T00:15:38.189Z,20.90
2023-01-11T00:18:06.095Z,17.88
2023-01-11T00:20:33.150Z,21.35
2023-01-11T00:23:00.594Z,22.98
2023-01-11T00:25:27.754Z,23.35
2023-01-11T00:27:55.427Z,21.83
2023-01-11T00:30:22.523Z,21.55
2023-01-11T00:32:50.059Z,24.98
2023-01-11T00:35:17.100Z,27.63
2023-01-11T00:37:44.569Z,30.92
2023-01-11T00:40:12.028Z,30.00
2023-01-11T00:42:58.051Z,30.35
2023-01-11T00:46:03.777Z,33.15
2023-01-11T00:48:31.154Z,33.92
2023-01-11T00:50:59.272Z,36.47
2023-01-11T00:53:26.567Z,33.92
2023-01-11T00:55:53.555Z,35.58
2023-01-11T00:58:20.917Z,36.83
2023-01-11T01:00:47.958Z,36.03
2023-01-11T01:03:15.269Z,35.10
2023-01-11T01:05:42.461Z,33.63
2023-01-11T01:08:10.117Z,33.88
2023-01-11T01:10:37.188Z,31.17
2023-01-11T01:13:23.055Z,30.83
2023-01-11T01:15:57.714Z,32.03
2023-01-11T01:18:25.073Z,31.98
2023-01-11T01:20:52.113Z,33.22
2023-01-11T01:23:19.465Z,29.75
2023-01-11T01:25:46.455Z,33.17
2023-01-11T01:28:13.848Z,30.60
2023-01-11T01:30:41.253Z,30.58
2023-01-11T01:33:08.725Z,30.75
2023-01-11T01:35:38.256Z,28.17
2023-01-11T01:38:05.710Z,28.92
2023-01-11T01:40:32.683Z,28.13
2023-01-11T01:43:00.004Z,27.58
2023-01-11T01:45:28.919Z,27.50
2023-01-11T01:48:02.497Z,23.55
2023-01-11T01:50:55.283Z,24.52
2023-01-11T01:53:32.980Z,23.85
2023-01-11T01:56:03.218Z,22.52
2023-01-11T01:58:36.784Z,24.33
2023-01-11T02:01:22.881Z,23.88
2023-01-11T02:03:51.971Z,22.48
2023-01-11T02:06:22.670Z,23.92
2023-01-11T02:08:59.779Z,22.10
2023-01-11T02:11:30.849Z,21.58
2023-01-11T02:14:09.433Z,21.75
2023-01-11T02:16:36.547Z,22.90
2023-01-11T02:19:05.805Z,20.10
2023-01-11T02:21:38.903Z,20.83
2023-01-11T02:24:26.728Z,20.40
2023-01-11T02:26:59.020Z,20.13
2023-01-11T02:29:32.940Z,20.48
2023-01-11T02:32:29.020Z,21.95
2023-01-11T02:35:05.235Z,20.75
2023-01-11T02:38:03.091Z,21.27
2023-01-11T02:40:42.443Z,20.85
2023-01-11T02:43:37.233Z,20.98
2023-01-11T02:46:30.479Z,21.67
2023-01-11T02:49:24.401Z,22.05
2023-01-11T02:52:19.239Z,24.00
2023-01-11T02:54:54.557Z,23.92
2023-01-11T02:57:22.989Z,24.08
2023-01-11T02:59:51.180Z,22.20
2023-01-11T03:02:18.633Z,22.80
2023-01-11T03:04:46.025Z,22.60
2023-01-11T03:07:35.150Z,23.38
2023-01-11T03:10:23.814Z,20.90
2023-01-11T03:12:57.123Z,22.87
2023-01-11T03:15:49.121Z,22.80
2023-01-11T03:18:41.495Z,22.70
2023-01-11T03:21:27.325Z,22.35
2023-01-11T03:24:12.663Z,22.85
2023-01-11T03:27:01.512Z,22.23
2023-01-11T03:29:35.762Z,21.58
2023-01-11T03:32:36.709Z,21.85
2023-01-11T03:35:28.247Z,19.73
2023-01-11T03:38:07.294Z,20.73
2023-01-11T03:40:46.653Z,21.23
2023-01-11T03:43:17.886Z,20.77
2023-01-11T03:45:57.553Z,21.27
2023-01-11T03:48:39.896Z,20.42
2023-01-11T03:51:12.541Z,22.33
2023-01-11T03:53:44.447Z,22.33
2023-01-11T03:56:15.404Z,22.10
2023-01-11T03:58:42.769Z,22.27
2023-01-11T04:01:12.381Z,22.88
2023-01-11T04:03:39.447Z,23.45
2023-01-11T04:06:10.708Z,23.65
2023-01-11T04:08:37.900Z,23.85
2023-01-11T04:11:05.565Z,23.20
2023-01-11T04:13:34.098Z,23.15
2023-01-11T04:16:01.945Z,23.58
2023-01-11T04:18:29.273Z,23.75
2023-01-11T04:20:56.760Z,23.60
2023-01-11T04:23:23.983Z,23.00
2023-01-11T04:25:51.581Z,22.92
2023-01-11T04:28:19.140Z,24.08
2023-01-11T04:30:49.336Z,23.65
2023-01-11T04:33:16.424Z,24.73
2023-01-11T04:35:44.696Z,23.52
2023-01-11T04:38:12.201Z,23.60
2023-01-11T04:40:39.591Z,23.17
2023-01-11T04:43:06.753Z,24.10
2023-01-11T04:45:34.182Z,22.60
2023-01-11T04:48:01.421Z,22.25
2023-01-11T04:50:28.916Z,22.33
2023-01-11T04:52:58.217Z,22.75
2023-01-11T04:55:25.500Z,20.80
2023-01-11T04:57:52.592Z,21.00
2023-01-11T05:00:20.335Z,19.58
2023-01-11T05:02:47.413Z,21.05
2023-01-11T05:05:14.910Z,20.42
2023-01-11T05:07:41.969Z,20.50
2023-01-11T05:10:09.825Z,21.35
2023-01-11T05:12:36.987Z,21.50
2023-01-11T05:15:05.205Z,20.52
2023-01-11T05:17:32.347Z,20.48
2023-01-11T05:20:00.323Z,21.20
2023-01-11T05:22:27.669Z,21.60
2023-01-11T05:24:55.056Z,21.48
2023-01-11T05:27:22.056Z,20.30
2023-01-11T05:29:49.422Z,20.65
2023-01-11T05:32:16.510Z,19.20
2023-01-11T05:34:43.863Z,20.60
2023-01-11T05:37:10.946Z,20.35
2023-01-11T05:39:38.348Z,20.23
2023-01-11T05:42:05.543Z,18.08
2023-01-11T05:44:51.836Z,18.88
2023-01-11T05:47:19.116Z,18.35
2023-01-11T05:49:46.467Z,16.52
2023-01-11T05:52:13.588Z,16.13
2023-01-11T05:54:40.941Z,17.02
2023-01-11T05:57:11.519Z,16.05
2023-01-11T05:59:38.945Z,15.40
2023-01-11T06:02:06.558Z,14.65
2023-01-11T06:04:34.642Z,14.95
2023-01-11T06:07:01.735Z,14.48
2023-01-11T06:09:29.241Z,15.85
2023-01-11T06:11:56.362Z,14.00
2023-01-11T06:14:23.764Z,15.65
2023-01-11T06:16:50.911Z,13.90
2023-01-11T06:19:19.199Z,14.30
2023-01-11T06:21:46.520Z,15.15
2023-01-11T06:24:14.031Z,14.45
2023-01-11T06:26:41.145Z,34.10
2023-01-11T06:29:08.538Z,32.05
2023-01-11T06:31:35.857Z,35.20
2023-01-11T06:34:03.155Z,14.48
2023-01-11T06:36:30.237Z,13.80
2023-01-11T06:38:57.611Z,12.90
2023-01-11T06:41:24.659Z,12.25
2023-01-11T06:43:51.939Z,11.57
2023-01-11T06:46:19.374Z,12.90
2023-01-11T06:48:47.386Z,12.80
2023-01-11T06:51:15.838Z,11.30
2023-01-11T06:53:44.115Z,11.93
2023-01-11T06:56:14.095Z,12.30
2023-01-11T06:58:42.012Z,12.05
2023-01-11T07:01:09.269Z,11.90
2023-01-11T07:03:36.765Z,12.27
2023-01-11T07:06:04.428Z,10.80
2023-01-11T07:08:31.868Z,11.60
2023-01-11T07:10:58.967Z,10.48
2023-01-11T07:13:26.530Z,10.88
2023-01-11T07:15:57.243Z,12.25
2023-01-11T07:18:24.752Z,11.50
2023-01-11T07:20:52.124Z,10.82
2023-01-11T07:23:19.668Z,11.40
2023-01-11T07:25:49.113Z,11.55
2023-01-11T07:28:16.550Z,10.75
2023-01-11T07:30:59.971Z,10.75
2023-01-11T07:33:27.877Z,10.77
2023-01-11T07:35:55.125Z,10.65
2023-01-11T07:38:23.088Z,12.90
2023-01-11T07:40:50.238Z,11.35
2023-01-11T07:43:23.538Z,17.45
2023-01-11T07:45:52.760Z,25.13
2023-01-11T07:48:26.402Z,13.68
2023-01-11T07:50:54.342Z,14.35
2023-01-11T07:53:25.502Z,17.35
2023-01-11T07:55:55.164Z,19.02
2023-01-11T07:58:22.587Z,15.13
2023-01-11T08:00:49.661Z,12.90
2023-01-11T08:03:17.147Z,14.02
2023-01-11T08:05:48.868Z,15.65
2023-01-11T08:08:16.225Z,15.00
2023-01-11T08:10:43.234Z,12.52
2023-01-11T08:13:33.389Z,12.60
2023-01-11T08:16:00.551Z,12.40
2023-01-11T08:18:28.007Z,12.80
2023-01-11T08:20:55.029Z,13.00
2023-01-11T08:23:22.459Z,13.18
2023-01-11T08:25:49.516Z,12.60
2023-01-11T08:28:16.853Z,13.32
2023-01-11T08:30:44.375Z,13.68
2023-01-11T08:33:11.921Z,13.52
2023-01-11T08:35:39.455Z,12.27
2023-01-11T08:38:07.582Z,12.40
2023-01-11T08:40:35.134Z,11.85
2023-01-11T08:43:03.046Z,12.25
2023-01-11T08:45:30.140Z,11.85
2023-01-11T08:47:59.377Z,12.52
2023-01-11T08:50:26.438Z,13.38
2023-01-11T08:52:53.828Z,15.20
2023-01-11T08:55:20.859Z,16.88
2023-01-11T08:57:48.215Z,15.68
2023-01-11T09:00:15.978Z,15.90
2023-01-11T09:02:45.559Z,15.65
2023-01-11T09:05:12.892Z,13.40
2023-01-11T09:07:40.452Z,14.52
2023-01-11T09:10:08.068Z,13.00
2023-01-11T09:12:35.497Z,11.00
2023-01-11T09:15:05.854Z,10.82
2023-01-11T09:17:34.196Z,12.38
2023-01-11T09:20:01.650Z,13.20
2023-01-11T09:22:29.660Z,15.57
2023-01-11T09:24:59.031Z,13.25
2023-01-11T09:27:26.621Z,14.63
2023-01-11T09:29:53.729Z,13.93
2023-01-11T09:32:21.295Z,11.18
2023-01-11T09:34:49.660Z,15.77
2023-01-11T09:37:17.220Z,14.05
2023-01-11T09:39:44.800Z,12.43
2023-01-11T09:42:41.150Z,13.18
2023-01-11T09:45:18.753Z,11.02
2023-01-11T09:48:17.435Z,11.15
2023-01-11T09:50:48.417Z,11.90
2023-01-11T09:53:37.200Z,10.68
2023-01-11T09:56:10.327Z,10.50
2023-01-11T09:58:57.327Z,12.40
2023-01-11T10:01:47.576Z,12.95
2023-01-11T10:04:36.197Z,10.57
2023-01-11T10:07:27.721Z,8.98
2023-01-11T10:18:42.927Z,9.98
2023-01-11T10:19:41.238Z,10.02
2023-01-11T10:22:17.904Z,10.45
2023-01-11T10:25:16.695Z,8.85
2023-01-11T10:27:58.921Z,10.70
2023-01-11T10:30:57.572Z,9.35
2023-01-11T10:34:16.122Z,9.67
2023-01-11T10:37:25.576Z,9.38
2023-01-11T10:40:20.725Z,10.90
2023-01-11T10:42:59.969Z,8.55
2023-01-11T10:45:37.575Z,8.95
2023-01-11T10:48:44.068Z,9.43
2023-01-11T10:51:25.325Z,9.32
2023-01-11T10:54:12.528Z,8.95
2023-01-11T10:57:02.536Z,7.90
2023-01-11T10:59:36.656Z,7.45
2023-01-11T11:02:23.825Z,8.27
2023-01-11T11:05:05.071Z,7.60
2023-01-11T11:07:50.039Z,8.32
2023-01-11T11:10:29.389Z,8.05
2023-01-11T11:13:10.117Z,29.88
2023-01-11T11:15:43.453Z,8.05
2023-01-11T11:18:11.404Z,8.65
2023-01-11T11:20:38.633Z,7.95
2023-01-11T11:23:06.265Z,9.88
2023-01-11T11:25:42.568Z,9.65
2023-01-11T11:28:22.924Z,8.43
2023-01-11T11:30:54.016Z,8.70
2023-01-11T11:33:31.002Z,8.07
2023-01-11T11:36:05.728Z,9.00
2023-01-11T11:38:41.769Z,9.30
2023-01-11T11:41:17.349Z,9.02
2023-01-11T11:43:48.481Z,10.32
2023-01-11T11:46:22.713Z,13.68
2023-01-11T11:49:10.570Z,13.40
2023-01-11T11:51:39.324Z,14.80
2023-01-11T11:54:06.840Z,10.93
2023-01-11T11:56:35.338Z,13.18
2023-01-11T11:59:09.272Z,12.00
2023-01-11T12:01:39.974Z,10.77
2023-01-11T12:04:13.619Z,10.55
2023-01-11T12:06:41.687Z,11.18
2023-01-11T12:09:31.384Z,13.57
2023-01-11T12:11:59.445Z,10.90
2023-01-11T12:14:35.325Z,13.82
2023-01-11T12:17:25.149Z,9.98
2023-01-11T12:19:52.605Z,11.05
2023-01-11T12:22:25.343Z,10.55
2023-01-11T12:25:15.795Z,15.10
2023-01-11T12:27:54.977Z,12.52
2023-01-11T12:30:31.074Z,14.98
2023-01-11T12:33:32.927Z,13.80
2023-01-11T12:36:45.218Z,18.25
2023-01-11T12:39:25.049Z,18.60
2023-01-11T12:42:11.298Z,16.98
2023-01-11T12:45:03.530Z,13.48
2023-01-11T12:47:43.224Z,10.80
2023-01-11T12:50:13.046Z,12.50
2023-01-11T12:53:04.543Z,10.43
2023-01-11T12:55:36.059Z,10.52
2023-01-11T12:58:14.723Z,10.45
2023-01-11T13:01:19.451Z,11.52
2023-01-11T13:04:05.910Z,9.70
2023-01-11T13:06:58.962Z,10.50
2023-01-11T13:10:05.100Z,9.20
2023-01-11T13:12:45.818Z,10.00
2023-01-11T13:15:41.953Z,11.32
2023-01-11T13:18:27.254Z,9.85
2023-01-11T13:21:09.051Z,9.90
2023-01-11T13:23:40.142Z,9.75
2023-01-11T13:26:31.843Z,12.00
2023-01-11T13:29:07.916Z,12.30
2023-01-11T13:31:36.432Z,13.63
2023-01-11T13:34:19.699Z,13.90
2023-01-11T13:36:54.047Z,14.93
2023-01-11T13:39:32.365Z,16.30
2023-01-11T13:42:05.131Z,12.50
2023-01-11T13:44:42.522Z,14.10
2023-01-11T13:47:17.303Z,11.90
2023-01-11T13:49:53.920Z,12.85
2023-01-11T13:52:37.678Z,9.63
2023-01-11T13:55:24.848Z,16.55
2023-01-11T13:58:03.555Z,17.00
2023-01-11T14:00:41.184Z,15.57
2023-01-11T14:03:14.508Z,12.73
2023-01-11T14:05:58.328Z,10.98
2023-01-11T14:08:47.701Z,11.20
2023-01-11T14:11:50.287Z,10.17
2023-01-11T14:14:37.467Z,8.70
2023-01-11T14:17:04.730Z,9.63
2023-01-11T14:19:53.708Z,9.23
2023-01-11T14:22:32.934Z,8.98
2023-01-11T14:25:06.980Z,9.02
2023-01-11T14:27:52.527Z,8.93
2023-01-11T14:30:34.994Z,9.95
2023-01-11T14:33:18.141Z,9.13
2023-01-11T14:35:59.077Z,11.25
2023-01-11T14:38:38.228Z,9.20
2023-01-11T14:41:30.285Z,9.23
2023-01-11T14:44:03.324Z,9.55
2023-01-11T14:47:01.773Z,8.70
2023-01-11T14:49:54.011Z,9.82
2023-01-11T14:52:38.595Z,9.88
2023-01-11T14:55:16.270Z,9.93
2023-01-11T14:58:00.435Z,10.45
2023-01-11T15:00:27.986Z,10.38
2023-01-11T15:03:01.231Z,9.85
2023-01-11T15:05:32.791Z,9.57
2023-01-11T15:08:15.309Z,9.77
2023-01-11T15:10:51.792Z,9.15
2023-01-11T15:13:35.238Z,10.05
2023-01-11T15:16:45.226Z,9.65
2023-01-11T15:19:34.089Z,10.70
2023-01-11T15:22:05.200Z,8.48
2023-01-11T15:24:42.436Z,8.95
2023-01-11T15:27:32.110Z,8.00
2023-01-11T15:30:01.120Z,9.88
2023-01-11T15:32:30.547Z,9.38
2023-01-11T15:35:17.954Z,8.93
2023-01-11T15:37:58.410Z,9.57
2023-01-11T15:40:29.083Z,9.82
2023-01-11T15:43:26.752Z,9.55
2023-01-11T15:46:32.280Z,8.23
2023-01-11T15:49:33.037Z,11.90
2023-01-11T15:52:22.060Z,18.05
2023-01-11T15:55:11.158Z,29.92
2023-01-11T15:58:00.370Z,29.38
2023-01-11T16:00:55.490Z,16.55
2023-01-11T16:04:01.163Z,10.45
2023-01-11T16:06:42.701Z,8.75
2023-01-11T16:09:47.702Z,9.43
2023-01-11T16:12:36.051Z,11.05
2023-01-11T16:15:30.530Z,9.50
2023-01-11T16:18:05.149Z,10.35
2023-01-11T16:20:32.552Z,9.23
2023-01-11T16:23:05.419Z,12.52
2023-01-11T16:25:40.144Z,10.43
2023-01-11T16:28:12.628Z,9.98
2023-01-11T16:30:41.201Z,10.82
2023-01-11T16:33:22.271Z,11.25
2023-01-11T16:35:50.109Z,12.68
2023-01-11T16:38:22.127Z,10.25
2023-01-11T16:40:53.409Z,10.57
2023-01-11T16:43:27.771Z,11.60
2023-01-11T16:45:55.821Z,10.23
2023-01-11T16:48:30.494Z,10.05
2023-01-11T16:51:09.063Z,9.70
2023-01-11T16:53:41.986Z,8.88
2023-01-11T16:56:22.129Z,10.30
2023-01-11T16:59:21.558Z,10.43
2023-01-11T17:01:59.326Z,8.98
2023-01-11T17:04:35.731Z,8.90
2023-01-11T17:07:26.479Z,8.82
2023-01-11T17:09:53.658Z,9.40
2023-01-11T17:12:26.346Z,8.80
2023-01-11T17:15:08.527Z,12.85
2023-01-11T17:17:37.505Z,9.43
2023-01-11T17:20:15.836Z,11.75
2023-01-11T17:22:43.917Z,10.70
2023-01-11T17:25:20.127Z,11.95
2023-01-11T17:28:02.848Z,10.88
2023-01-11T17:30:31.023Z,11.85
2023-01-11T17:32:59.708Z,18.33
2023-01-11T17:35:30.510Z,11.32
2023-01-11T17:38:02.234Z,15.23
2023-01-11T17:40:32.010Z,13.98
2023-01-11T17:43:40.239Z,12.10
2023-01-11T17:46:09.555Z,11.60
2023-01-11T17:48:37.131Z,11.90
2023-01-11T17:51:05.698Z,13.13
2023-01-11T17:53:35.215Z,12.43
2023-01-11T17:56:04.949Z,12.93
2023-01-11T17:58:37.229Z,11.13
2023-01-11T18:01:04.856Z,12.55
2023-01-11T18:03:43.647Z,10.38
2023-01-11T18:06:32.961Z,10.57
2023-01-11T18:09:03.793Z,10.80
2023-01-11T18:11:36.943Z,11.77
2023-01-11T18:14:08.934Z,11.27
2023-01-11T18:16:36.344Z,10.60
2023-01-11T18:19:23.693Z,14.88
2023-01-11T18:21:53.428Z,10.73
2023-01-11T18:24:31.505Z,13.98
2023-01-11T18:27:07.912Z,16.35
2023-01-11T18:29:39.048Z,19.05
2023-01-11T18:32:11.352Z,31.58
2023-01-11T18:34:40.211Z,24.02
2023-01-11T18:37:08.141Z,24.42
2023-01-11T18:39:36.667Z,17.23
2023-01-11T18:42:08.378Z,18.63
2023-01-11T18:44:38.942Z,43.47
2023-01-11T18:47:15.268Z,24.42
2023-01-11T18:49:44.315Z,21.98
2023-01-11T18:52:12.711Z,32.25
2023-01-11T18:54:41.374Z,23.58
2023-01-11T18:57:09.054Z,19.60
2023-01-11T18:59:38.079Z,20.50
2023-01-11T19:02:17.959Z,21.13
2023-01-11T19:04:46.962Z,20.48
2023-01-11T19:07:15.714Z,19.20
2023-01-11T19:09:45.192Z,19.25
2023-01-11T19:12:13.865Z,19.70
2023-01-11T19:14:42.357Z,16.65
2023-01-11T19:17:13.456Z,16.13
2023-01-11T19:19:41.781Z,17.73
2023-01-11T19:22:11.478Z,18.23
2023-01-11T19:24:40.168Z,17.25
2023-01-11T19:27:08.130Z,20.67
2023-01-11T19:29:36.005Z,30.00
2023-01-11T19:32:04.462Z,26.02
2023-01-11T19:34:34.319Z,20.17
2023-01-11T19:37:03.328Z,19.27
2023-01-11T19:39:36.579Z,21.48
2023-01-11T19:42:04.873Z,19.30
2023-01-11T19:44:35.464Z,21.35
2023-01-11T19:47:11.453Z,21.75
2023-01-11T19:49:48.121Z,20.33
2023-01-11T19:52:27.309Z,22.90
2023-01-11T19:55:00.567Z,30.98
2023-01-11T19:57:35.623Z,31.77
2023-01-11T20:00:09.314Z,29.67
2023-01-11T20:02:40.910Z,24.55
2023-01-11T20:05:09.843Z,24.42
2023-01-11T20:07:37.757Z,28.77
2023-01-11T20:10:10.154Z,26.42
2023-01-11T20:12:38.563Z,21.00
2023-01-11T20:15:07.685Z,22.88
2023-01-11T20:17:37.937Z,22.17
2023-01-11T20:20:07.168Z,21.13
2023-01-11T20:22:34.779Z,22.80
2023-01-11T20:25:03.040Z,21.58
2023-01-11T20:27:31.119Z,19.45
2023-01-11T20:29:59.739Z,21.15
2023-01-11T20:32:41.020Z,20.83
2023-01-11T20:35:10.589Z,20.20
2023-01-11T20:37:38.316Z,19.77
2023-01-11T20:40:07.899Z,22.40
2023-01-11T20:42:35.971Z,19.42
2023-01-11T20:45:04.452Z,20.95
2023-01-11T20:47:32.736Z,19.58
2023-01-11T20:50:01.477Z,22.98
2023-01-11T20:52:28.968Z,22.63
2023-01-11T20:54:56.951Z,23.10
2023-01-11T20:57:24.155Z,24.52
2023-01-11T20:59:52.358Z,22.13
2023-01-11T21:02:19.960Z,19.58
2023-01-11T21:04:48.640Z,24.85
2023-01-11T21:07:17.416Z,23.27
2023-01-11T21:09:45.549Z,30.63
2023-01-11T21:12:12.911Z,23.70
2023-01-11T21:14:40.846Z,18.23
2023-01-11T21:17:09.652Z,18.58
2023-01-11T21:19:37.427Z,21.70
2023-01-11T21:22:05.401Z,20.00
2023-01-11T21:24:33.309Z,18.63
2023-01-11T21:27:00.735Z,18.83
2023-01-11T21:29:28.735Z,18.60
2023-01-11T21:31:56.866Z,23.48
2023-01-11T21:34:24.663Z,23.45
2023-01-11T21:36:52.325Z,18.73
2023-01-11T21:39:19.902Z,21.02
2023-01-11T21:41:56.276Z,25.63
2023-01-11T21:44:33.916Z,23.20
2023-01-11T21:47:03.180Z,23.30
2023-01-11T21:49:32.040Z,20.27
2023-01-11T21:52:00.058Z,19.73
2023-01-11T21:54:27.828Z,16.27
2023-01-11T21:56:55.308Z,20.33
2023-01-11T21:59:24.114Z,19.73
2023-01-11T22:01:51.827Z,16.40
2023-01-11T22:04:20.970Z,18.30
2023-01-11T22:06:54.828Z,19.20
2023-01-11T22:09:27.317Z,17.30
2023-01-11T22:11:55.462Z,19.70
2023-01-11T22:14:23.357Z,18.15
2023-01-11T22:16:51.152Z,18.38
2023-01-11T22:19:18.944Z,18.15
2023-01-11T22:21:46.154Z,23.02
2023-01-11T22:24:13.855Z,20.65
2023-01-11T22:26:41.323Z,22.27
2023-01-11T22:29:12.409Z,19.25
2023-01-11T22:31:46.573Z,21.17
2023-01-11T22:34:15.573Z,21.50
2023-01-11T22:36:44.015Z,21.17
2023-01-11T22:39:13.218Z,19.23
2023-01-11T22:41:40.704Z,16.98
2023-01-11T22:44:09.506Z,18.65
2023-01-11T22:46:37.167Z,17.15
2023-01-11T22:49:08.646Z,17.02
2023-01-11T22:51:36.110Z,16.77
2023-01-11T22:54:04.341Z,16.55
2023-01-11T22:56:32.059Z,17.20
2023-01-11T22:58:59.799Z,14.93
2023-01-11T23:01:33.028Z,17.27
2023-01-11T23:04:01.304Z,15.43
2023-01-11T23:06:37.122Z,15.20
2023-01-11T23:09:07.488Z,18.85
2023-01-11T23:14:26.818Z,15.18
2023-01-11T23:16:54.062Z,18.45
2023-01-11T23:19:21.682Z,18.42
2023-01-11T23:21:48.948Z,19.20
2023-01-11T23:24:17.066Z,16.92
2023-01-11T23:26:45.463Z,17.13
2023-01-11T23:29:13.997Z,17.92
2023-01-11T23:31:42.904Z,16.95
2023-01-11T23:34:11.803Z,14.73
2023-01-11T23:36:41.287Z,18.15
2023-01-11T23:39:13.268Z,14.25
2023-01-11T23:41:59.595Z,14.43
2023-01-11T23:44:27.258Z,14.82
2023-01-11T23:47:12.813Z,13.95
2023-01-11T23:49:40.606Z,20.02
2023-01-11T23:52:07.779Z,17.60
2023-01-11T23:54:35.458Z,17.30
2023-01-11T23:57:04.295Z,16.88
2023-01-11T23:59:32.562Z,19.07
